sensor_id;sensor_type;location;lat;lon;timestamp;temperature;humidity
29237;DHT22;16266;50.866;4.398;2023-08-01T00:00:44;17.00;99.90
29237;DHT22;16266;50.866;4.398;2023-08-01T00:03:10;17.00;99.90
29237;DHT22;16266;50.866;4.398;2023-08-01T00:05:36;16.90;99.90
29237;DHT22;16266;50.866;4.398;2023-08-01T00:08:03;16.80;99.90
29237;DHT22;16266;50.866;4.398;2023-08-01T00:10:28;16.80;99.90
29237;DHT22;16266;50.866;4.398;2023-08-01T00:12:54;16.70;99.90
29237;DHT22;16266;50.866;4.398;2023-08-01T00:15:20;16.70;99.90
29237;DHT22;16266;50.866;4.398;2023-08-01T00:17:45;16.70;99.90
29237;DHT22;16266;50.866;4.398;2023-08-01T00:20:11;16.60;99.90
29237;DHT22;16266;50.866;4.398;2023-08-01T00:22:37;16.60;99.90
29237;DHT22;16266;50.866;4.398;2023-08-01T00:25:03;16.60;99.90
29237;DHT22;16266;50.866;4.398;2023-08-01T00:27:28;16.60;99.90
29237;DHT22;16266;50.866;4.398;2023-08-01T00:29:54;16.60;99.90
29237;DHT22;16266;50.866;4.398;2023-08-01T00:32:20;16.60;99.90
29237;DHT22;16266;50.866;4.398;2023-08-01T00:34:45;16.60;99.90
29237;DHT22;16266;50.866;4.398;2023-08-01T00:37:12;16.60;99.90
29237;DHT22;16266;50.866;4.398;2023-08-01T00:39:38;16.60;99.90
29237;DHT22;16266;50.866;4.398;2023-08-01T00:42:03;16.50;99.90
29237;DHT22;16266;50.866;4.398;2023-08-01T00:44:29;16.50;99.90
29237;DHT22;16266;50.866;4.398;2023-08-01T00:46:55;16.50;99.90
29237;DHT22;16266;50.866;4.398;2023-08-01T00:49:21;16.60;99.90
29237;DHT22;16266;50.866;4.398;2023-08-01T00:51:47;16.60;99.90
29237;DHT22;16266;50.866;4.398;2023-08-01T00:54:14;16.60;99.90
29237;DHT22;16266;50.866;4.398;2023-08-01T00:56:40;16.60;99.90
29237;DHT22;16266;50.866;4.398;2023-08-01T00:59:05;16.50;99.90
29237;DHT22;16266;50.866;4.398;2023-08-01T01:01:31;16.60;99.90
29237;DHT22;16266;50.866;4.398;2023-08-01T01:03:57;16.60;99.90
29237;DHT22;16266;50.866;4.398;2023-08-01T01:06:32;16.60;99.90
29237;DHT22;16266;50.866;4.398;2023-08-01T01:08:59;16.50;99.90
29237;DHT22;16266;50.866;4.398;2023-08-01T01:11:24;16.50;99.90
29237;DHT22;16266;50.866;4.398;2023-08-01T01:13:50;16.50;99.90
29237;DHT22;16266;50.866;4.398;2023-08-01T01:16:19;16.50;99.90
29237;DHT22;16266;50.866;4.398;2023-08-01T01:18:45;16.50;99.90
29237;DHT22;16266;50.866;4.398;2023-08-01T01:21:11;16.50;99.90
29237;DHT22;16266;50.866;4.398;2023-08-01T01:23:37;16.50;99.90
29237;DHT22;16266;50.866;4.398;2023-08-01T01:26:04;16.50;99.90
29237;DHT22;16266;50.866;4.398;2023-08-01T01:28:31;16.50;99.90
29237;DHT22;16266;50.866;4.398;2023-08-01T01:30:58;16.50;99.90
29237;DHT22;16266;50.866;4.398;2023-08-01T01:33:23;16.50;99.90
29237;DHT22;16266;50.866;4.398;2023-08-01T01:35:49;16.50;99.90
29237;DHT22;16266;50.866;4.398;2023-08-01T01:38:15;16.50;99.90
29237;DHT22;16266;50.866;4.398;2023-08-01T01:40:41;16.50;99.90
29237;DHT22;16266;50.866;4.398;2023-08-01T01:43:07;16.60;99.90
29237;DHT22;16266;50.866;4.398;2023-08-01T01:45:32;16.60;99.90
29237;DHT22;16266;50.866;4.398;2023-08-01T01:47:58;16.60;99.90
29237;DHT22;16266;50.866;4.398;2023-08-01T01:50:24;16.50;99.90
29237;DHT22;16266;50.866;4.398;2023-08-01T01:52:49;16.40;99.90
29237;DHT22;16266;50.866;4.398;2023-08-01T01:55:15;16.40;99.90
29237;DHT22;16266;50.866;4.398;2023-08-01T01:57:41;16.40;99.90
29237;DHT22;16266;50.866;4.398;2023-08-01T02:00:07;16.40;99.90
29237;DHT22;16266;50.866;4.398;2023-08-01T02:02:36;16.30;99.90
29237;DHT22;16266;50.866;4.398;2023-08-01T02:05:01;16.30;99.90
29237;DHT22;16266;50.866;4.398;2023-08-01T02:07:29;16.30;99.90
29237;DHT22;16266;50.866;4.398;2023-08-01T02:09:55;16.30;99.90
29237;DHT22;16266;50.866;4.398;2023-08-01T02:12:20;16.30;99.90
29237;DHT22;16266;50.866;4.398;2023-08-01T02:14:46;16.20;99.90
29237;DHT22;16266;50.866;4.398;2023-08-01T02:17:12;16.20;99.90
29237;DHT22;16266;50.866;4.398;2023-08-01T02:19:38;16.20;99.90
29237;DHT22;16266;50.866;4.398;2023-08-01T02:22:04;16.20;99.90
29237;DHT22;16266;50.866;4.398;2023-08-01T02:24:29;16.20;99.90
29237;DHT22;16266;50.866;4.398;2023-08-01T02:26:55;16.20;99.90
29237;DHT22;16266;50.866;4.398;2023-08-01T02:29:21;16.20;99.90
29237;DHT22;16266;50.866;4.398;2023-08-01T02:31:46;16.20;99.90
29237;DHT22;16266;50.866;4.398;2023-08-01T02:34:12;16.20;99.90
29237;DHT22;16266;50.866;4.398;2023-08-01T02:36:37;16.30;99.90
29237;DHT22;16266;50.866;4.398;2023-08-01T02:39:03;16.30;99.90
29237;DHT22;16266;50.866;4.398;2023-08-01T02:41:29;16.20;99.90
29237;DHT22;16266;50.866;4.398;2023-08-01T02:43:55;16.20;99.90
29237;DHT22;16266;50.866;4.398;2023-08-01T02:46:21;16.20;99.90
29237;DHT22;16266;50.866;4.398;2023-08-01T02:48:46;16.20;99.90
29237;DHT22;16266;50.866;4.398;2023-08-01T02:51:12;16.30;99.90
29237;DHT22;16266;50.866;4.398;2023-08-01T02:53:38;16.20;99.90
29237;DHT22;16266;50.866;4.398;2023-08-01T02:56:06;16.20;99.90
29237;DHT22;16266;50.866;4.398;2023-08-01T02:58:34;16.30;99.90
29237;DHT22;16266;50.866;4.398;2023-08-01T03:00:59;16.20;99.90
29237;DHT22;16266;50.866;4.398;2023-08-01T03:03:26;16.20;99.90
29237;DHT22;16266;50.866;4.398;2023-08-01T03:05:52;16.20;99.90
29237;DHT22;16266;50.866;4.398;2023-08-01T03:08:18;16.20;99.90
29237;DHT22;16266;50.866;4.398;2023-08-01T03:10:44;16.30;99.90
29237;DHT22;16266;50.866;4.398;2023-08-01T03:13:10;16.30;99.90
29237;DHT22;16266;50.866;4.398;2023-08-01T03:15:36;16.30;99.90
29237;DHT22;16266;50.866;4.398;2023-08-01T03:18:02;16.30;99.90
29237;DHT22;16266;50.866;4.398;2023-08-01T03:20:28;16.20;99.90
29237;DHT22;16266;50.866;4.398;2023-08-01T03:22:53;16.20;99.90
29237;DHT22;16266;50.866;4.398;2023-08-01T03:25:19;16.30;99.90
29237;DHT22;16266;50.866;4.398;2023-08-01T03:27:45;16.20;99.90
29237;DHT22;16266;50.866;4.398;2023-08-01T03:30:10;16.30;99.90
29237;DHT22;16266;50.866;4.398;2023-08-01T03:32:36;16.30;99.90
29237;DHT22;16266;50.866;4.398;2023-08-01T03:35:04;16.30;99.90
29237;DHT22;16266;50.866;4.398;2023-08-01T03:37:30;16.30;99.90
29237;DHT22;16266;50.866;4.398;2023-08-01T03:39:55;16.30;99.90
29237;DHT22;16266;50.866;4.398;2023-08-01T03:42:21;16.30;99.90
29237;DHT22;16266;50.866;4.398;2023-08-01T03:44:46;16.20;99.90
29237;DHT22;16266;50.866;4.398;2023-08-01T03:47:12;16.20;99.90
29237;DHT22;16266;50.866;4.398;2023-08-01T03:49:38;16.20;99.90
29237;DHT22;16266;50.866;4.398;2023-08-01T03:52:05;16.20;99.90
29237;DHT22;16266;50.866;4.398;2023-08-01T03:54:31;16.30;99.90
29237;DHT22;16266;50.866;4.398;2023-08-01T03:56:56;16.20;99.90
29237;DHT22;16266;50.866;4.398;2023-08-01T03:59:22;16.30;99.90
29237;DHT22;16266;50.866;4.398;2023-08-01T04:01:48;16.30;99.90
29237;DHT22;16266;50.866;4.398;2023-08-01T04:04:14;16.30;99.90
29237;DHT22;16266;50.866;4.398;2023-08-01T04:06:39;16.30;99.90
29237;DHT22;16266;50.866;4.398;2023-08-01T04:09:05;16.30;99.90
29237;DHT22;16266;50.866;4.398;2023-08-01T04:11:32;16.30;99.90
29237;DHT22;16266;50.866;4.398;2023-08-01T04:13:57;16.30;99.90
29237;DHT22;16266;50.866;4.398;2023-08-01T04:16:23;16.30;99.90
29237;DHT22;16266;50.866;4.398;2023-08-01T04:18:49;16.20;99.90
29237;DHT22;16266;50.866;4.398;2023-08-01T04:21:15;16.10;99.90
29237;DHT22;16266;50.866;4.398;2023-08-01T04:23:41;16.00;99.90
29237;DHT22;16266;50.866;4.398;2023-08-01T04:26:07;16.10;99.90
29237;DHT22;16266;50.866;4.398;2023-08-01T04:28:33;16.00;99.90
29237;DHT22;16266;50.866;4.398;2023-08-01T04:31:00;16.00;99.90
29237;DHT22;16266;50.866;4.398;2023-08-01T04:33:25;16.10;99.90
29237;DHT22;16266;50.866;4.398;2023-08-01T04:35:51;16.10;99.90
29237;DHT22;16266;50.866;4.398;2023-08-01T04:38:16;16.10;99.90
29237;DHT22;16266;50.866;4.398;2023-08-01T04:40:42;16.20;99.90
29237;DHT22;16266;50.866;4.398;2023-08-01T04:43:09;16.10;99.90
29237;DHT22;16266;50.866;4.398;2023-08-01T04:45:36;16.10;99.90
29237;DHT22;16266;50.866;4.398;2023-08-01T04:48:02;16.00;99.90
29237;DHT22;16266;50.866;4.398;2023-08-01T04:50:28;15.90;99.90
29237;DHT22;16266;50.866;4.398;2023-08-01T04:53:02;15.90;99.90
29237;DHT22;16266;50.866;4.398;2023-08-01T04:55:28;15.90;99.90
29237;DHT22;16266;50.866;4.398;2023-08-01T04:57:53;15.90;99.90
29237;DHT22;16266;50.866;4.398;2023-08-01T05:00:19;16.00;99.90
29237;DHT22;16266;50.866;4.398;2023-08-01T05:02:45;16.10;99.90
29237;DHT22;16266;50.866;4.398;2023-08-01T05:05:12;16.10;99.90
29237;DHT22;16266;50.866;4.398;2023-08-01T05:07:37;16.20;99.90
29237;DHT22;16266;50.866;4.398;2023-08-01T05:10:03;16.20;99.90
29237;DHT22;16266;50.866;4.398;2023-08-01T05:12:29;16.50;99.90
29237;DHT22;16266;50.866;4.398;2023-08-01T05:14:55;16.70;99.90
29237;DHT22;16266;50.866;4.398;2023-08-01T05:17:21;16.70;99.90
29237;DHT22;16266;50.866;4.398;2023-08-01T05:19:47;16.70;99.90
29237;DHT22;16266;50.866;4.398;2023-08-01T05:22:12;16.80;99.90
29237;DHT22;16266;50.866;4.398;2023-08-01T05:24:39;16.90;99.90
29237;DHT22;16266;50.866;4.398;2023-08-01T05:27:05;16.90;99.90
29237;DHT22;16266;50.866;4.398;2023-08-01T05:29:30;17.10;99.90
29237;DHT22;16266;50.866;4.398;2023-08-01T05:31:56;17.10;99.90
29237;DHT22;16266;50.866;4.398;2023-08-01T05:34:21;17.20;99.90
29237;DHT22;16266;50.866;4.398;2023-08-01T05:36:47;17.20;99.90
29237;DHT22;16266;50.866;4.398;2023-08-01T05:39:13;17.20;99.90
29237;DHT22;16266;50.866;4.398;2023-08-01T05:41:38;17.40;99.90
29237;DHT22;16266;50.866;4.398;2023-08-01T05:44:04;17.40;99.90
29237;DHT22;16266;50.866;4.398;2023-08-01T05:46:30;17.50;99.90
29237;DHT22;16266;50.866;4.398;2023-08-01T05:48:55;17.60;99.90
29237;DHT22;16266;50.866;4.398;2023-08-01T05:51:21;17.70;99.90
29237;DHT22;16266;50.866;4.398;2023-08-01T05:53:47;17.80;99.90
29237;DHT22;16266;50.866;4.398;2023-08-01T05:56:13;17.90;99.90
29237;DHT22;16266;50.866;4.398;2023-08-01T05:58:38;18.00;99.90
29237;DHT22;16266;50.866;4.398;2023-08-01T06:01:05;18.20;99.90
29237;DHT22;16266;50.866;4.398;2023-08-01T06:03:31;18.30;99.90
29237;DHT22;16266;50.866;4.398;2023-08-01T06:05:57;18.50;99.90
29237;DHT22;16266;50.866;4.398;2023-08-01T06:08:22;18.50;99.90
29237;DHT22;16266;50.866;4.398;2023-08-01T06:10:48;18.40;99.90
29237;DHT22;16266;50.866;4.398;2023-08-01T06:13:14;18.20;99.90
29237;DHT22;16266;50.866;4.398;2023-08-01T06:15:39;18.20;99.90
29237;DHT22;16266;50.866;4.398;2023-08-01T06:18:05;18.10;99.90
29237;DHT22;16266;50.866;4.398;2023-08-01T06:20:31;18.00;99.90
29237;DHT22;16266;50.866;4.398;2023-08-01T06:22:56;18.10;99.90
29237;DHT22;16266;50.866;4.398;2023-08-01T06:25:22;18.20;99.90
29237;DHT22;16266;50.866;4.398;2023-08-01T06:27:47;18.30;99.90
29237;DHT22;16266;50.866;4.398;2023-08-01T06:30:13;18.50;99.90
29237;DHT22;16266;50.866;4.398;2023-08-01T06:32:39;18.80;99.90
29237;DHT22;16266;50.866;4.398;2023-08-01T06:35:05;19.00;99.90
29237;DHT22;16266;50.866;4.398;2023-08-01T06:37:31;19.20;99.90
29237;DHT22;16266;50.866;4.398;2023-08-01T06:39:58;19.40;99.90
29237;DHT22;16266;50.866;4.398;2023-08-01T06:42:24;19.40;99.90
29237;DHT22;16266;50.866;4.398;2023-08-01T06:44:51;19.30;99.90
29237;DHT22;16266;50.866;4.398;2023-08-01T06:47:17;19.10;99.90
29237;DHT22;16266;50.866;4.398;2023-08-01T06:49:43;19.10;99.90
29237;DHT22;16266;50.866;4.398;2023-08-01T06:52:09;19.00;99.90
29237;DHT22;16266;50.866;4.398;2023-08-01T06:54:34;19.00;99.90
29237;DHT22;16266;50.866;4.398;2023-08-01T06:57:00;19.10;99.90
29237;DHT22;16266;50.866;4.398;2023-08-01T06:59:26;19.30;99.90
29237;DHT22;16266;50.866;4.398;2023-08-01T07:01:51;19.70;99.90
29237;DHT22;16266;50.866;4.398;2023-08-01T07:04:17;20.70;99.90
29237;DHT22;16266;50.866;4.398;2023-08-01T07:06:43;20.90;99.90
29237;DHT22;16266;50.866;4.398;2023-08-01T07:09:09;21.10;99.90
29237;DHT22;16266;50.866;4.398;2023-08-01T07:11:35;21.20;99.90
29237;DHT22;16266;50.866;4.398;2023-08-01T07:14:01;21.00;99.90
29237;DHT22;16266;50.866;4.398;2023-08-01T07:16:27;20.90;99.90
29237;DHT22;16266;50.866;4.398;2023-08-01T07:18:52;20.80;99.90
29237;DHT22;16266;50.866;4.398;2023-08-01T07:21:18;20.70;99.90
29237;DHT22;16266;50.866;4.398;2023-08-01T07:23:43;20.60;99.90
29237;DHT22;16266;50.866;4.398;2023-08-01T07:26:10;21.10;99.90
29237;DHT22;16266;50.866;4.398;2023-08-01T07:28:35;21.40;99.90
29237;DHT22;16266;50.866;4.398;2023-08-01T07:31:03;21.60;99.90
29237;DHT22;16266;50.866;4.398;2023-08-01T07:33:30;21.80;99.90
29237;DHT22;16266;50.866;4.398;2023-08-01T07:35:56;22.20;99.90
29237;DHT22;16266;50.866;4.398;2023-08-01T07:38:22;22.20;99.90
29237;DHT22;16266;50.866;4.398;2023-08-01T07:40:47;22.00;99.90
29237;DHT22;16266;50.866;4.398;2023-08-01T07:43:13;21.90;99.90
29237;DHT22;16266;50.866;4.398;2023-08-01T07:45:39;21.80;99.90
29237;DHT22;16266;50.866;4.398;2023-08-01T07:48:04;21.30;99.90
29237;DHT22;16266;50.866;4.398;2023-08-01T07:50:30;20.90;99.90
29237;DHT22;16266;50.866;4.398;2023-08-01T07:52:56;20.50;99.90
29237;DHT22;16266;50.866;4.398;2023-08-01T07:55:22;20.70;99.90
29237;DHT22;16266;50.866;4.398;2023-08-01T07:57:48;21.10;99.90
29237;DHT22;16266;50.866;4.398;2023-08-01T08:00:14;20.90;99.90
29237;DHT22;16266;50.866;4.398;2023-08-01T08:02:45;21.00;99.90
29237;DHT22;16266;50.866;4.398;2023-08-01T08:05:11;21.70;99.90
29237;DHT22;16266;50.866;4.398;2023-08-01T08:07:38;22.20;99.90
29237;DHT22;16266;50.866;4.398;2023-08-01T08:10:04;23.10;99.90
29237;DHT22;16266;50.866;4.398;2023-08-01T08:12:31;24.00;99.90
29237;DHT22;16266;50.866;4.398;2023-08-01T08:14:56;24.70;99.90
29237;DHT22;16266;50.866;4.398;2023-08-01T08:17:22;24.90;99.90
29237;DHT22;16266;50.866;4.398;2023-08-01T08:19:47;25.40;99.90
29237;DHT22;16266;50.866;4.398;2023-08-01T08:22:13;25.60;99.90
29237;DHT22;16266;50.866;4.398;2023-08-01T08:24:39;26.00;99.90
29237;DHT22;16266;50.866;4.398;2023-08-01T08:27:05;25.90;99.90
29237;DHT22;16266;50.866;4.398;2023-08-01T08:29:32;25.60;99.90
29237;DHT22;16266;50.866;4.398;2023-08-01T08:31:58;25.50;99.90
29237;DHT22;16266;50.866;4.398;2023-08-01T08:34:24;25.30;99.90
29237;DHT22;16266;50.866;4.398;2023-08-01T08:36:49;25.20;99.90
29237;DHT22;16266;50.866;4.398;2023-08-01T08:39:18;26.00;99.90
29237;DHT22;16266;50.866;4.398;2023-08-01T08:41:49;26.80;99.90
29237;DHT22;16266;50.866;4.398;2023-08-01T08:44:18;27.70;99.90
29237;DHT22;16266;50.866;4.398;2023-08-01T08:46:51;28.40;99.90
29237;DHT22;16266;50.866;4.398;2023-08-01T08:49:21;28.90;99.90
29237;DHT22;16266;50.866;4.398;2023-08-01T08:51:48;29.90;99.00
29237;DHT22;16266;50.866;4.398;2023-08-01T08:54:15;30.70;92.90
29237;DHT22;16266;50.866;4.398;2023-08-01T08:56:41;31.30;89.00
29237;DHT22;16266;50.866;4.398;2023-08-01T08:59:08;31.90;85.10
29237;DHT22;16266;50.866;4.398;2023-08-01T09:01:36;32.00;82.50
29237;DHT22;16266;50.866;4.398;2023-08-01T09:04:03;32.60;73.60
29237;DHT22;16266;50.866;4.398;2023-08-01T09:06:51;32.90;66.00
29237;DHT22;16266;50.866;4.398;2023-08-01T09:09:16;33.00;60.70
29237;DHT22;16266;50.866;4.398;2023-08-01T09:11:47;32.70;59.30
29237;DHT22;16266;50.866;4.398;2023-08-01T09:14:13;33.60;58.60
29237;DHT22;16266;50.866;4.398;2023-08-01T09:16:40;32.90;55.80
29237;DHT22;16266;50.866;4.398;2023-08-01T09:19:06;31.40;58.30
29237;DHT22;16266;50.866;4.398;2023-08-01T09:21:34;30.40;66.10
29237;DHT22;16266;50.866;4.398;2023-08-01T09:24:15;31.20;65.30
29237;DHT22;16266;50.866;4.398;2023-08-01T09:26:42;32.20;63.60
29237;DHT22;16266;50.866;4.398;2023-08-01T09:29:09;32.70;59.30
29237;DHT22;16266;50.866;4.398;2023-08-01T09:31:40;32.40;63.10
29237;DHT22;16266;50.866;4.398;2023-08-01T09:34:18;30.80;66.80
29237;DHT22;16266;50.866;4.398;2023-08-01T09:36:44;29.40;72.70
29237;DHT22;16266;50.866;4.398;2023-08-01T09:39:19;28.50;82.70
29237;DHT22;16266;50.866;4.398;2023-08-01T09:41:46;28.10;85.70
29237;DHT22;16266;50.866;4.398;2023-08-01T09:44:15;28.30;86.10
29237;DHT22;16266;50.866;4.398;2023-08-01T09:46:40;28.80;88.00
29237;DHT22;16266;50.866;4.398;2023-08-01T09:49:11;29.00;76.80
29237;DHT22;16266;50.866;4.398;2023-08-01T09:51:47;29.20;71.80
29237;DHT22;16266;50.866;4.398;2023-08-01T09:54:15;30.10;66.70
29237;DHT22;16266;50.866;4.398;2023-08-01T09:56:45;31.10;61.60
29237;DHT22;16266;50.866;4.398;2023-08-01T09:59:11;33.00;54.00
29237;DHT22;16266;50.866;4.398;2023-08-01T10:01:38;33.50;48.80
29237;DHT22;16266;50.866;4.398;2023-08-01T10:04:07;34.20;48.50
29237;DHT22;16266;50.866;4.398;2023-08-01T10:06:34;34.40;42.90
29237;DHT22;16266;50.866;4.398;2023-08-01T10:09:01;35.00;41.70
29237;DHT22;16266;50.866;4.398;2023-08-01T10:11:27;35.60;40.30
29237;DHT22;16266;50.866;4.398;2023-08-01T10:13:56;36.90;33.40
29237;DHT22;16266;50.866;4.398;2023-08-01T10:16:21;38.00;32.10
29237;DHT22;16266;50.866;4.398;2023-08-01T10:18:48;37.70;28.80
29237;DHT22;16266;50.866;4.398;2023-08-01T10:21:16;36.50;30.00
29237;DHT22;16266;50.866;4.398;2023-08-01T10:23:43;36.90;30.00
29237;DHT22;16266;50.866;4.398;2023-08-01T10:26:11;35.70;29.90
29237;DHT22;16266;50.866;4.398;2023-08-01T10:28:39;35.60;29.60
29237;DHT22;16266;50.866;4.398;2023-08-01T10:31:12;33.70;32.10
29237;DHT22;16266;50.866;4.398;2023-08-01T10:33:39;31.90;37.80
29237;DHT22;16266;50.866;4.398;2023-08-01T10:36:22;31.30;39.90
29237;DHT22;16266;50.866;4.398;2023-08-01T10:38:59;31.10;42.00
29237;DHT22;16266;50.866;4.398;2023-08-01T10:41:32;30.70;43.20
29237;DHT22;16266;50.866;4.398;2023-08-01T10:44:08;31.00;42.60
29237;DHT22;16266;50.866;4.398;2023-08-01T10:47:03;30.40;41.10
29237;DHT22;16266;50.866;4.398;2023-08-01T10:49:37;30.00;43.90
29237;DHT22;16266;50.866;4.398;2023-08-01T10:52:23;29.40;45.90
29237;DHT22;16266;50.866;4.398;2023-08-01T10:55:03;29.70;47.80
29237;DHT22;16266;50.866;4.398;2023-08-01T10:57:30;29.80;47.20
29237;DHT22;16266;50.866;4.398;2023-08-01T10:59:59;29.30;47.10
29237;DHT22;16266;50.866;4.398;2023-08-01T11:02:27;29.80;48.30
29237;DHT22;16266;50.866;4.398;2023-08-01T11:04:59;29.60;46.90
29237;DHT22;16266;50.866;4.398;2023-08-01T11:07:25;30.00;49.30
29237;DHT22;16266;50.866;4.398;2023-08-01T11:10:08;30.50;47.20
29237;DHT22;16266;50.866;4.398;2023-08-01T11:12:40;30.80;44.70
29237;DHT22;16266;50.866;4.398;2023-08-01T11:15:07;31.60;45.10
29237;DHT22;16266;50.866;4.398;2023-08-01T11:17:36;31.80;41.50
29237;DHT22;16266;50.866;4.398;2023-08-01T11:20:06;31.90;40.10
29237;DHT22;16266;50.866;4.398;2023-08-01T11:22:33;31.70;40.20
29237;DHT22;16266;50.866;4.398;2023-08-01T11:24:58;31.80;42.20
29237;DHT22;16266;50.866;4.398;2023-08-01T11:27:25;31.30;40.80
29237;DHT22;16266;50.866;4.398;2023-08-01T11:29:52;30.80;42.30
29237;DHT22;16266;50.866;4.398;2023-08-01T11:32:18;31.20;42.60
29237;DHT22;16266;50.866;4.398;2023-08-01T11:34:45;30.60;45.60
29237;DHT22;16266;50.866;4.398;2023-08-01T11:37:12;30.20;47.00
29237;DHT22;16266;50.866;4.398;2023-08-01T11:39:39;30.20;48.40
29237;DHT22;16266;50.866;4.398;2023-08-01T11:42:05;31.00;47.90
29237;DHT22;16266;50.866;4.398;2023-08-01T11:44:31;32.00;43.20
29237;DHT22;16266;50.866;4.398;2023-08-01T11:46:56;33.70;40.40
29237;DHT22;16266;50.866;4.398;2023-08-01T11:49:22;35.90;35.80
29237;DHT22;16266;50.866;4.398;2023-08-01T11:51:48;36.00;31.00
29237;DHT22;16266;50.866;4.398;2023-08-01T11:54:14;35.10;28.10
29237;DHT22;16266;50.866;4.398;2023-08-01T11:56:41;34.20;26.90
29237;DHT22;16266;50.866;4.398;2023-08-01T11:59:15;32.40;29.40
29237;DHT22;16266;50.866;4.398;2023-08-01T12:01:42;31.30;38.50
29237;DHT22;16266;50.866;4.398;2023-08-01T12:04:08;29.20;42.70
29237;DHT22;16266;50.866;4.398;2023-08-01T12:06:34;27.50;48.00
29237;DHT22;16266;50.866;4.398;2023-08-01T12:09:11;26.90;58.50
29237;DHT22;16266;50.866;4.398;2023-08-01T12:11:37;26.30;65.30
29237;DHT22;16266;50.866;4.398;2023-08-01T12:14:05;26.20;66.30
29237;DHT22;16266;50.866;4.398;2023-08-01T12:16:32;26.40;69.80
29237;DHT22;16266;50.866;4.398;2023-08-01T12:18:58;27.00;68.60
29237;DHT22;16266;50.866;4.398;2023-08-01T12:21:24;29.00;56.10
29237;DHT22;16266;50.866;4.398;2023-08-01T12:23:49;30.80;47.70
29237;DHT22;16266;50.866;4.398;2023-08-01T12:26:15;31.00;46.50
29237;DHT22;16266;50.866;4.398;2023-08-01T12:28:41;30.20;47.50
29237;DHT22;16266;50.866;4.398;2023-08-01T12:31:06;29.30;47.70
29237;DHT22;16266;50.866;4.398;2023-08-01T12:33:35;28.60;49.60
29237;DHT22;16266;50.866;4.398;2023-08-01T12:36:00;27.80;51.80
29237;DHT22;16266;50.866;4.398;2023-08-01T12:38:26;27.20;55.70
29237;DHT22;16266;50.866;4.398;2023-08-01T12:40:52;25.70;67.60
29237;DHT22;16266;50.866;4.398;2023-08-01T12:43:17;24.80;77.80
29237;DHT22;16266;50.866;4.398;2023-08-01T12:45:43;24.30;88.20
29237;DHT22;16266;50.866;4.398;2023-08-01T12:48:09;24.00;90.40
29237;DHT22;16266;50.866;4.398;2023-08-01T12:50:34;24.30;90.60
29237;DHT22;16266;50.866;4.398;2023-08-01T12:53:00;24.50;91.10
29237;DHT22;16266;50.866;4.398;2023-08-01T12:55:26;24.80;90.50
29237;DHT22;16266;50.866;4.398;2023-08-01T12:57:51;24.50;88.70
29237;DHT22;16266;50.866;4.398;2023-08-01T13:00:17;24.20;97.00
29237;DHT22;16266;50.866;4.398;2023-08-01T13:02:43;24.10;96.50
29237;DHT22;16266;50.866;4.398;2023-08-01T13:05:09;24.00;94.70
29237;DHT22;16266;50.866;4.398;2023-08-01T13:07:35;24.30;95.50
29237;DHT22;16266;50.866;4.398;2023-08-01T13:10:02;24.30;94.90
29237;DHT22;16266;50.866;4.398;2023-08-01T13:12:28;24.90;93.80
29237;DHT22;16266;50.866;4.398;2023-08-01T13:14:54;25.40;90.80
29237;DHT22;16266;50.866;4.398;2023-08-01T13:17:19;25.70;89.30
29237;DHT22;16266;50.866;4.398;2023-08-01T13:19:45;26.70;87.00
29237;DHT22;16266;50.866;4.398;2023-08-01T13:22:11;29.10;71.80
29237;DHT22;16266;50.866;4.398;2023-08-01T13:24:37;29.90;58.80
29237;DHT22;16266;50.866;4.398;2023-08-01T13:27:02;30.70;55.20
29237;DHT22;16266;50.866;4.398;2023-08-01T13:29:28;30.50;52.50
29237;DHT22;16266;50.866;4.398;2023-08-01T13:31:54;30.30;51.60
29237;DHT22;16266;50.866;4.398;2023-08-01T13:34:19;30.00;51.20
29237;DHT22;16266;50.866;4.398;2023-08-01T13:36:45;30.10;51.30
29237;DHT22;16266;50.866;4.398;2023-08-01T13:39:10;31.00;49.60
29237;DHT22;16266;50.866;4.398;2023-08-01T13:41:36;30.30;51.00
29237;DHT22;16266;50.866;4.398;2023-08-01T13:44:02;30.60;48.30
29237;DHT22;16266;50.866;4.398;2023-08-01T13:46:27;31.20;45.60
29237;DHT22;16266;50.866;4.398;2023-08-01T13:48:53;31.00;37.80
29237;DHT22;16266;50.866;4.398;2023-08-01T13:51:19;29.90;40.30
29237;DHT22;16266;50.866;4.398;2023-08-01T13:53:45;28.70;42.90
29237;DHT22;16266;50.866;4.398;2023-08-01T13:56:11;28.40;44.80
29237;DHT22;16266;50.866;4.398;2023-08-01T13:58:40;29.40;44.10
29237;DHT22;16266;50.866;4.398;2023-08-01T14:01:07;30.00;42.00
29237;DHT22;16266;50.866;4.398;2023-08-01T14:03:37;29.80;40.90
29237;DHT22;16266;50.866;4.398;2023-08-01T14:06:07;28.90;44.80
29237;DHT22;16266;50.866;4.398;2023-08-01T14:08:33;28.10;46.00
29237;DHT22;16266;50.866;4.398;2023-08-01T14:10:59;27.10;50.20
29237;DHT22;16266;50.866;4.398;2023-08-01T14:13:25;26.50;52.20
29237;DHT22;16266;50.866;4.398;2023-08-01T14:15:50;26.00;77.00
29237;DHT22;16266;50.866;4.398;2023-08-01T14:18:17;24.60;81.30
29237;DHT22;16266;50.866;4.398;2023-08-01T14:20:42;23.80;78.90
29237;DHT22;16266;50.866;4.398;2023-08-01T14:23:08;23.40;81.00
29237;DHT22;16266;50.866;4.398;2023-08-01T14:25:34;23.00;79.60
29237;DHT22;16266;50.866;4.398;2023-08-01T14:28:01;22.80;83.00
29237;DHT22;16266;50.866;4.398;2023-08-01T14:30:27;22.60;87.80
29237;DHT22;16266;50.866;4.398;2023-08-01T14:33:03;22.40;93.50
29237;DHT22;16266;50.866;4.398;2023-08-01T14:35:29;22.10;99.90
29237;DHT22;16266;50.866;4.398;2023-08-01T14:37:55;21.60;99.90
29237;DHT22;16266;50.866;4.398;2023-08-01T14:40:24;21.00;99.90
29237;DHT22;16266;50.866;4.398;2023-08-01T14:42:51;20.50;99.90
29237;DHT22;16266;50.866;4.398;2023-08-01T14:45:17;20.30;99.90
29237;DHT22;16266;50.866;4.398;2023-08-01T14:47:44;20.20;99.90
29237;DHT22;16266;50.866;4.398;2023-08-01T14:50:11;20.50;99.90
29237;DHT22;16266;50.866;4.398;2023-08-01T14:52:37;20.70;99.90
29237;DHT22;16266;50.866;4.398;2023-08-01T14:55:03;20.90;99.90
29237;DHT22;16266;50.866;4.398;2023-08-01T14:57:29;21.30;99.90
29237;DHT22;16266;50.866;4.398;2023-08-01T14:59:55;21.60;99.90
29237;DHT22;16266;50.866;4.398;2023-08-01T15:02:21;21.90;99.90
29237;DHT22;16266;50.866;4.398;2023-08-01T15:04:53;21.90;99.90
29237;DHT22;16266;50.866;4.398;2023-08-01T15:07:21;22.00;99.90
29237;DHT22;16266;50.866;4.398;2023-08-01T15:09:47;21.80;99.90
29237;DHT22;16266;50.866;4.398;2023-08-01T15:12:18;21.50;99.90
29237;DHT22;16266;50.866;4.398;2023-08-01T15:14:50;21.10;99.90
29237;DHT22;16266;50.866;4.398;2023-08-01T15:17:16;20.70;99.90
29237;DHT22;16266;50.866;4.398;2023-08-01T15:19:42;20.40;99.90
29237;DHT22;16266;50.866;4.398;2023-08-01T15:22:09;20.00;99.90
29237;DHT22;16266;50.866;4.398;2023-08-01T15:24:35;19.60;99.90
29237;DHT22;16266;50.866;4.398;2023-08-01T15:27:00;19.30;99.90